createdAt,value
2016-08-03T00:00:50.692Z,99.99
2016-08-03T00:01:50.716Z,99.99
2016-08-03T00:02:50.728Z,99.99
2016-08-03T00:03:50.753Z,99.99
2016-08-03T00:04:50.768Z,99.99
2016-08-03T00:05:50.789Z,99.99
2016-08-03T00:06:50.811Z,99.99
2016-08-03T00:07:50.830Z,99.99
2016-08-03T00:08:50.843Z,99.99
2016-08-03T00:09:50.876Z,99.99
2016-08-03T00:10:50.888Z,99.99
2016-08-03T00:11:50.910Z,99.99
2016-08-03T00:12:50.919Z,99.99
2016-08-03T00:13:50.947Z,99.99
2016-08-03T00:14:50.965Z,99.99
2016-08-03T00:15:50.990Z,99.99
2016-08-03T00:16:51.004Z,99.99
2016-08-03T00:17:51.028Z,99.99
2016-08-03T00:18:51.052Z,99.99
2016-08-03T00:20:51.082Z,99.99
2016-08-03T00:21:51.120Z,99.99
2016-08-03T00:22:51.121Z,99.99
2016-08-03T00:23:51.148Z,99.99
2016-08-03T00:24:51.159Z,99.99
2016-08-03T00:25:51.889Z,99.99
2016-08-03T00:26:51.196Z,99.99
2016-08-03T00:27:51.220Z,99.99
2016-08-03T00:28:51.236Z,99.99
2016-08-03T00:29:51.258Z,99.99
2016-08-03T00:30:51.270Z,99.99
2016-08-03T00:31:51.300Z,99.99
2016-08-03T00:32:51.313Z,99.99
2016-08-03T00:33:51.334Z,99.99
2016-08-03T00:34:51.349Z,99.99
2016-08-03T00:35:51.381Z,99.99
2016-08-03T00:36:51.389Z,99.99
2016-08-03T00:37:52.135Z,99.99
2016-08-03T00:38:51.442Z,99.99
2016-08-03T00:39:51.459Z,99.99
2016-08-03T00:40:51.471Z,99.99
2016-08-03T00:41:51.494Z,99.99
2016-08-03T00:42:51.504Z,99.99
2016-08-03T00:43:51.530Z,99.99
2016-08-03T00:44:51.552Z,99.99
2016-08-03T00:45:51.575Z,99.99
2016-08-03T00:46:52.315Z,99.99
2016-08-03T00:47:51.609Z,99.99
2016-08-03T00:48:51.618Z,99.99
2016-08-03T00:49:52.381Z,99.99
2016-08-03T00:50:51.664Z,99.99
2016-08-03T00:51:51.697Z,99.99
2016-08-03T00:52:51.699Z,99.99
2016-08-03T00:53:51.719Z,99.99
2016-08-03T00:54:51.746Z,99.99
2016-08-03T00:55:51.773Z,99.99
2016-08-03T00:56:51.783Z,99.99
2016-08-03T00:57:51.806Z,99.99
2016-08-03T00:58:51.819Z,99.99
2016-08-03T00:59:51.839Z,99.99
2016-08-03T01:00:51.862Z,99.99
2016-08-03T01:01:51.883Z,99.99
2016-08-03T01:02:51.900Z,99.99
2016-08-03T01:03:51.939Z,99.99
2016-08-03T01:04:51.932Z,99.99
2016-08-03T01:05:51.957Z,99.99
2016-08-03T01:06:51.978Z,99.99
2016-08-03T01:07:52.008Z,99.99
2016-08-03T01:08:52.013Z,99.99
2016-08-03T01:09:52.036Z,99.99
2016-08-03T01:10:52.051Z,99.99
2016-08-03T01:11:52.083Z,99.99
2016-08-03T01:12:52.094Z,99.99
2016-08-03T01:14:52.130Z,99.99
2016-08-03T01:15:52.161Z,99.99
2016-08-03T01:16:52.178Z,99.99
2016-08-03T01:17:52.200Z,99.99
2016-08-03T01:18:52.205Z,99.77
2016-08-03T01:19:52.236Z,99.99
2016-08-03T01:20:52.249Z,99.99
2016-08-03T01:21:52.267Z,99.99
2016-08-03T01:22:52.307Z,99.99
2016-08-03T01:23:52.310Z,99.99
2016-08-03T01:24:52.326Z,99.99
2016-08-03T01:25:52.350Z,99.99
2016-08-03T01:26:52.363Z,99.99
2016-08-03T01:27:53.111Z,99.99
2016-08-03T01:29:52.423Z,99.99
2016-08-03T01:30:52.440Z,99.96
2016-08-03T01:31:52.476Z,99.92
2016-08-03T01:32:52.481Z,99.99
2016-08-03T01:33:52.504Z,99.99
2016-08-03T01:34:52.518Z,99.99
2016-08-03T01:35:52.538Z,99.99
2016-08-03T01:36:52.557Z,99.99
2016-08-03T01:37:52.587Z,99.99
2016-08-03T01:38:52.603Z,99.99
2016-08-03T01:39:52.634Z,99.99
2016-08-03T01:40:52.641Z,99.99
2016-08-03T01:41:52.653Z,99.99
2016-08-03T01:42:52.682Z,99.99
2016-08-03T01:43:52.698Z,99.99
2016-08-03T01:44:52.719Z,99.99
2016-08-03T01:45:52.733Z,99.99
2016-08-03T01:46:52.754Z,99.99
2016-08-03T01:47:52.784Z,99.99
2016-08-03T01:48:52.798Z,99.99
2016-08-03T01:49:53.536Z,99.99
2016-08-03T01:50:52.833Z,99.99
2016-08-03T01:51:52.851Z,99.99
2016-08-03T01:52:52.868Z,99.99
2016-08-03T01:53:53.611Z,99.99
2016-08-03T01:54:52.912Z,99.99
2016-08-03T01:55:52.927Z,99.99
2016-08-03T01:56:52.946Z,99.99
2016-08-03T01:57:52.967Z,99.99
2016-08-03T01:58:52.986Z,99.99
2016-08-03T01:59:53.010Z,99.99
2016-08-03T02:00:53.026Z,99.99
2016-08-03T02:01:53.047Z,99.99
2016-08-03T02:02:53.079Z,99.99
2016-08-03T02:03:53.089Z,99.99
2016-08-03T02:04:53.104Z,99.99
2016-08-03T02:05:53.125Z,99.99
2016-08-03T02:06:53.139Z,99.99
2016-08-03T02:07:53.162Z,99.99
2016-08-03T02:08:53.181Z,99.99
2016-08-03T02:09:53.213Z,99.99
2016-08-03T02:10:53.227Z,99.99
2016-08-03T02:11:53.252Z,99.99
2016-08-03T02:12:53.259Z,99.99
2016-08-03T02:13:53.286Z,99.99
2016-08-03T02:14:53.297Z,99.99
2016-08-03T02:15:53.319Z,99.99
2016-08-03T02:16:53.342Z,99.99
2016-08-03T02:17:53.359Z,99.99
2016-08-03T02:18:53.380Z,99.99
2016-08-03T02:19:53.412Z,99.99
2016-08-03T02:20:53.417Z,99.99
2016-08-03T02:21:53.441Z,99.99
2016-08-03T02:22:53.454Z,99.99
2016-08-03T02:23:53.482Z,99.99
2016-08-03T02:24:53.496Z,99.92
2016-08-03T02:25:53.527Z,99.54
2016-08-03T02:26:53.534Z,99.99
2016-08-03T02:27:53.563Z,99.99
2016-08-03T02:28:53.568Z,99.99
2016-08-03T02:29:53.595Z,99.99
2016-08-03T02:30:53.613Z,99.99
2016-08-03T02:31:53.639Z,99.99
2016-08-03T02:32:53.653Z,99.99
2016-08-03T02:33:53.672Z,99.99
2016-08-03T02:34:53.691Z,99.99
2016-08-03T02:35:53.719Z,99.99
2016-08-03T02:36:53.737Z,99.99
2016-08-03T02:37:54.467Z,99.92
2016-08-03T02:38:53.768Z,99.92
2016-08-03T02:39:53.786Z,99.63
2016-08-03T02:40:53.803Z,99.34
2016-08-03T02:41:53.827Z,99.99
2016-08-03T02:42:53.846Z,99.92
2016-08-03T02:43:53.868Z,99.99
2016-08-03T02:44:53.881Z,99.99
2016-08-03T02:45:53.905Z,99.25
2016-08-03T02:46:53.921Z,99.44
2016-08-03T02:47:53.946Z,99.73
2016-08-03T02:48:53.961Z,99.54
2016-08-03T02:49:53.995Z,99.73
2016-08-03T02:50:54.001Z,99.54
2016-08-03T02:51:54.015Z,99.34
2016-08-03T02:52:54.048Z,99.92
2016-08-03T02:53:54.061Z,99.99
2016-08-03T02:54:54.079Z,99.99
2016-08-03T02:55:54.102Z,99.73
2016-08-03T02:56:54.119Z,99.99
2016-08-03T02:57:54.149Z,99.82
2016-08-03T02:58:54.166Z,99.63
2016-08-03T02:59:54.176Z,99.63
2016-08-03T03:00:54.197Z,99.63
2016-08-03T03:01:54.228Z,99.99
2016-08-03T03:02:54.238Z,99.99
2016-08-03T03:03:54.258Z,99.92
2016-08-03T03:04:54.278Z,99.54
2016-08-03T03:05:54.300Z,99.05
2016-08-03T03:06:54.314Z,99.54
2016-08-03T03:07:54.345Z,99.15
2016-08-03T03:08:54.355Z,99.54
2016-08-03T03:09:54.385Z,99.54
2016-08-03T03:10:54.393Z,99.54
2016-08-03T03:11:54.418Z,99.44
2016-08-03T03:12:54.433Z,99.34
2016-08-03T03:13:54.458Z,99.44
2016-08-03T03:14:54.472Z,99.54
2016-08-03T03:15:54.496Z,99.34
2016-08-03T03:16:54.514Z,99.44
2016-08-03T03:17:54.527Z,99.92
2016-08-03T03:18:54.554Z,99.99
2016-08-03T03:19:54.580Z,99.99
2016-08-03T03:20:54.600Z,99.73
2016-08-03T03:21:54.606Z,99.82
2016-08-03T03:22:54.630Z,99.82
2016-08-03T03:23:54.657Z,99.99
2016-08-03T03:24:54.661Z,99.99
2016-08-03T03:25:54.694Z,99.99
2016-08-03T03:26:54.707Z,99.73
2016-08-03T03:27:54.733Z,99.73
2016-08-03T03:28:54.746Z,99.63
2016-08-03T03:29:54.773Z,99.99
2016-08-03T03:30:54.785Z,99.99
2016-08-03T03:31:54.810Z,99.99
2016-08-03T03:32:54.829Z,99.99
2016-08-03T03:33:54.849Z,99.99
2016-08-03T03:34:54.863Z,99.82
2016-08-03T03:35:54.889Z,99.82
2016-08-03T03:36:54.900Z,99.99
2016-08-03T03:37:54.927Z,99.99
2016-08-03T03:38:54.943Z,99.82
2016-08-03T03:39:54.966Z,99.82
2016-08-03T03:40:54.978Z,99.63
2016-08-03T03:41:55.012Z,99.99
2016-08-03T03:42:55.024Z,99.73
2016-08-03T03:43:55.056Z,99.99
2016-08-03T03:44:55.060Z,99.92
2016-08-03T03:45:55.088Z,99.99
2016-08-03T03:46:55.101Z,99.92
2016-08-03T03:47:55.132Z,99.99
2016-08-03T03:48:55.142Z,99.99
2016-08-03T03:49:55.177Z,99.25
2016-08-03T03:50:55.176Z,99.34
2016-08-03T03:51:55.206Z,99.25
2016-08-03T03:52:55.223Z,99.54
2016-08-03T03:53:55.253Z,99.73
2016-08-03T03:54:55.257Z,99.44
2016-08-03T03:55:55.285Z,99.44
2016-08-03T03:56:55.302Z,99.92
2016-08-03T03:57:55.327Z,99.99
2016-08-03T03:58:55.331Z,99.99
2016-08-03T03:59:55.356Z,99.99
2016-08-03T04:00:55.376Z,99.63
2016-08-03T04:01:55.398Z,99.92
2016-08-03T04:02:55.415Z,99.63
2016-08-03T04:03:55.447Z,99.99
2016-08-03T04:04:55.456Z,99.82
2016-08-03T04:05:55.483Z,99.99
2016-08-03T04:06:55.489Z,99.92
2016-08-03T04:07:55.530Z,99.54
2016-08-03T04:08:55.539Z,99.25
2016-08-03T04:09:55.554Z,99.63
2016-08-03T04:10:55.569Z,99.54
2016-08-03T04:11:55.596Z,99.15
2016-08-03T04:12:55.611Z,99.25
2016-08-03T04:13:55.631Z,98.96
2016-08-03T04:14:55.654Z,98.38
2016-08-03T04:15:55.678Z,98.48
2016-08-03T04:16:55.688Z,98.29
2016-08-03T04:17:55.720Z,98.58
2016-08-03T04:18:55.731Z,97.91
2016-08-03T04:19:55.751Z,98
2016-08-03T04:20:55.778Z,98.1
2016-08-03T04:21:55.787Z,98.58
2016-08-03T04:22:55.812Z,98.34
2016-08-03T04:23:55.825Z,98.29
2016-08-03T04:24:55.846Z,98
2016-08-03T04:25:55.885Z,98.38
2016-08-03T04:26:55.890Z,98.38
2016-08-03T04:27:55.913Z,98.19
2016-08-03T04:28:55.929Z,98.1
2016-08-03T04:29:55.964Z,97.96
2016-08-03T04:30:55.965Z,98
2016-08-03T04:31:55.996Z,97.96
2016-08-03T04:32:56.004Z,98.38
2016-08-03T04:33:56.032Z,98.48
2016-08-03T04:34:56.049Z,98.53
2016-08-03T04:35:56.078Z,99.1
2016-08-03T04:36:56.086Z,99.4
2016-08-03T04:37:56.116Z,98.58
2016-08-03T04:38:56.129Z,98.53
2016-08-03T04:39:56.150Z,98.53
2016-08-03T04:40:56.167Z,98.05
2016-08-03T04:41:56.196Z,98.63
2016-08-03T04:42:56.202Z,98.34
2016-08-03T04:43:56.227Z,98.63
2016-08-03T04:44:56.242Z,98.14
2016-08-03T04:45:56.271Z,98.24
2016-08-03T04:46:56.281Z,98.24
2016-08-03T04:47:56.303Z,98.53
2016-08-03T04:48:56.334Z,98.05
2016-08-03T04:49:56.346Z,98.05
2016-08-03T04:50:56.357Z,98.34
2016-08-03T04:51:56.403Z,98.67
2016-08-03T04:52:56.407Z,99.01
2016-08-03T04:53:56.424Z,98.63
2016-08-03T04:54:56.444Z,99.01
2016-08-03T04:55:56.467Z,99.01
2016-08-03T04:56:56.481Z,98.72
2016-08-03T04:57:56.506Z,98.72
2016-08-03T04:58:56.514Z,98.05
2016-08-03T04:59:56.574Z,98.91
2016-08-03T05:00:56.561Z,98.43
2016-08-03T05:01:56.583Z,98.82
2016-08-03T05:02:56.600Z,99.2
2016-08-03T05:03:56.621Z,98.91
2016-08-03T05:04:56.639Z,99.01
2016-08-03T05:05:56.673Z,98.48
2016-08-03T05:06:56.681Z,99.05
2016-08-03T05:07:56.708Z,98.82
2016-08-03T05:08:56.718Z,98.53
2016-08-03T05:09:56.760Z,98.29
2016-08-03T05:10:56.759Z,98.53
2016-08-03T05:11:56.780Z,98.14
2016-08-03T05:12:56.800Z,99.01
2016-08-03T05:13:56.823Z,99.1
2016-08-03T05:15:56.861Z,99.01
2016-08-03T05:16:56.873Z,99.2
2016-08-03T05:17:56.903Z,99.99
2016-08-03T05:18:56.915Z,99.92
2016-08-03T05:19:56.937Z,99.99
2016-08-03T05:20:56.953Z,99.99
2016-08-03T05:21:56.992Z,99.99
2016-08-03T05:22:56.997Z,99.99
2016-08-03T05:23:57.026Z,99.99
2016-08-03T05:24:57.031Z,99.99
2016-08-03T05:25:57.057Z,99.99
2016-08-03T05:26:57.074Z,99.99
2016-08-03T05:27:57.099Z,99.99
2016-08-03T05:28:57.113Z,99.99
2016-08-03T05:30:57.148Z,99.99
2016-08-03T05:31:57.178Z,99.99
2016-08-03T05:32:57.207Z,99.99
2016-08-03T05:33:57.211Z,99.99
2016-08-03T05:34:57.230Z,99.99
2016-08-03T05:35:57.252Z,99.99
2016-08-03T05:36:57.272Z,99.99
2016-08-03T05:37:57.994Z,99.99
2016-08-03T05:38:57.302Z,99.99
2016-08-03T05:39:57.336Z,99.99
2016-08-03T05:40:57.339Z,99.99
2016-08-03T05:41:57.367Z,99.99
2016-08-03T05:42:57.388Z,99.99
2016-08-03T05:43:57.406Z,99.99
2016-08-03T05:44:57.421Z,99.99
2016-08-03T05:45:57.447Z,99.99
2016-08-03T05:46:57.465Z,99.99
2016-08-03T05:47:57.474Z,99.99
2016-08-03T05:48:57.500Z,99.99
2016-08-03T05:49:57.521Z,99.99
2016-08-03T05:50:57.538Z,99.99
2016-08-03T05:51:57.569Z,99.99
2016-08-03T05:52:57.582Z,99.99
2016-08-03T05:53:57.602Z,99.99
2016-08-03T05:54:57.618Z,99.99
2016-08-03T05:55:57.642Z,99.99
2016-08-03T05:56:57.671Z,99.99
2016-08-03T05:57:57.675Z,99.99
2016-08-03T05:58:57.697Z,99.99
2016-08-03T05:59:57.730Z,99.99
2016-08-03T06:00:57.732Z,99.99
2016-08-03T06:01:57.755Z,99.99
2016-08-03T06:02:57.776Z,99.99
2016-08-03T06:03:57.804Z,99.99
2016-08-03T06:04:57.809Z,99.99
2016-08-03T06:05:57.841Z,99.99
2016-08-03T06:06:57.851Z,99.99
2016-08-03T06:07:57.879Z,99.99
2016-08-03T06:08:57.895Z,99.99
2016-08-03T06:09:57.926Z,99.99
2016-08-03T06:10:57.933Z,99.99
2016-08-03T06:11:57.952Z,99.99
2016-08-03T06:12:57.978Z,99.99
2016-08-03T06:13:57.997Z,99.99
2016-08-03T06:14:58.017Z,99.99
2016-08-03T06:15:58.043Z,99.99
2016-08-03T06:16:58.052Z,99.99
2016-08-03T06:17:58.076Z,99.99
2016-08-03T06:18:58.094Z,99.99
2016-08-03T06:19:58.115Z,99.92
2016-08-03T06:20:58.130Z,99.99
2016-08-03T06:21:58.152Z,99.92
2016-08-03T06:22:58.178Z,99.99
2016-08-03T06:23:58.200Z,99.99
2016-08-03T06:24:58.215Z,99.99
2016-08-03T06:25:58.233Z,99.83
2016-08-03T06:26:58.252Z,99.92
2016-08-03T06:27:58.281Z,99.99
2016-08-03T06:28:58.292Z,99.99
2016-08-03T06:29:58.322Z,99.49
2016-08-03T06:30:58.329Z,99.49
2016-08-03T06:31:58.356Z,99.59
2016-08-03T06:32:58.383Z,99.78
2016-08-03T06:33:58.395Z,99.68
2016-08-03T06:34:58.415Z,99.3
2016-08-03T06:35:58.433Z,99.11
2016-08-03T06:36:58.456Z,99.11
2016-08-03T06:37:59.220Z,98.72
2016-08-03T06:38:58.506Z,99.49
2016-08-03T06:39:58.521Z,98.53
2016-08-03T06:40:58.540Z,99.01
2016-08-03T06:41:58.557Z,98.91
2016-08-03T06:42:58.574Z,98.91
2016-08-03T06:43:58.604Z,98.91
2016-08-03T06:44:58.618Z,98.72
2016-08-03T06:45:58.638Z,99.49
2016-08-03T06:46:58.661Z,99.11
2016-08-03T06:47:58.680Z,98.14
2016-08-03T06:48:58.694Z,98.44
2016-08-03T06:49:58.727Z,98.34
2016-08-03T06:51:13.592Z,98.24
2016-08-03T06:51:58.773Z,98.53
2016-08-03T06:52:58.781Z,98.91
2016-08-03T06:53:58.805Z,98.72
2016-08-03T06:54:58.821Z,98.63
2016-08-03T06:55:58.846Z,98.24
2016-08-03T06:56:58.864Z,98.24
2016-08-03T06:57:58.882Z,97.76
2016-08-03T06:58:58.901Z,98.05
2016-08-03T06:59:58.919Z,96.8
2016-08-03T07:00:58.935Z,97.19
2016-08-03T07:01:58.961Z,97.38
2016-08-03T07:02:58.980Z,97.67
2016-08-03T07:03:59.009Z,97.57
2016-08-03T07:04:59.025Z,97.47
2016-08-03T07:05:59.039Z,97.24
2016-08-03T07:06:59.056Z,97.04
2016-08-03T07:07:59.084Z,96.94
2016-08-03T07:08:59.108Z,96.32
2016-08-03T07:09:59.126Z,96.42
2016-08-03T07:10:59.151Z,96.27
2016-08-03T07:11:59.169Z,96.37
2016-08-03T07:12:59.188Z,95.5
2016-08-03T07:13:59.203Z,96.47
2016-08-03T07:14:59.224Z,96.56
2016-08-03T07:15:59.258Z,96.66
2016-08-03T07:16:59.272Z,96.47
2016-08-03T07:17:59.293Z,96.17
2016-08-03T07:18:59.307Z,96.47
2016-08-03T07:19:59.342Z,96.08
2016-08-03T07:20:59.352Z,97.04
2016-08-03T07:21:59.388Z,96.94
2016-08-03T07:22:59.391Z,96.37
2016-08-03T07:23:59.420Z,95.31
2016-08-03T07:24:59.428Z,95.12
2016-08-03T07:25:59.457Z,94.45
2016-08-03T07:26:59.487Z,95.4
2016-08-03T07:27:59.499Z,94.73
2016-08-03T07:28:59.513Z,94.83
2016-08-03T07:29:59.533Z,94.35
2016-08-03T07:30:59.556Z,94.3
2016-08-03T07:31:59.572Z,94.2
2016-08-03T07:32:59.595Z,94.4
2016-08-03T07:33:59.630Z,94.49
2016-08-03T07:34:59.636Z,94.68
2016-08-03T07:35:59.663Z,94.25
2016-08-03T07:36:59.674Z,94.25
2016-08-03T07:37:59.707Z,94.87
2016-08-03T07:38:59.724Z,94.78
2016-08-03T07:39:59.745Z,94.59
2016-08-03T07:40:59.762Z,94.45
2016-08-03T07:41:59.783Z,94.64
2016-08-03T07:42:59.804Z,94.78
2016-08-03T07:43:59.828Z,95.02
2016-08-03T07:44:59.848Z,94.59
2016-08-03T07:45:59.875Z,94.4
2016-08-03T07:46:59.882Z,95.07
2016-08-03T07:47:59.904Z,95.36
2016-08-03T07:48:59.923Z,94.3
2016-08-03T07:50:00.676Z,93.72
2016-08-03T07:50:59.963Z,92.38
2016-08-03T07:51:59.990Z,92.76
2016-08-03T07:53:00.008Z,93.62
2016-08-03T07:54:00.028Z,93.53
2016-08-03T07:55:00.048Z,93.82
2016-08-03T07:56:00.087Z,93.72
2016-08-03T07:57:00.095Z,93.72
2016-08-03T07:58:00.121Z,93.91
2016-08-03T07:59:00.129Z,93.91
2016-08-03T08:00:00.147Z,93.72
2016-08-03T08:01:00.182Z,93.33
2016-08-03T08:02:00.201Z,93.82
2016-08-03T08:03:00.215Z,93.72
2016-08-03T08:04:00.240Z,93.91
2016-08-03T08:05:00.261Z,94.3
2016-08-03T08:06:00.284Z,94.2
2016-08-03T08:07:00.303Z,93.72
2016-08-03T08:08:00.326Z,92.95
2016-08-03T08:09:00.344Z,93.72
2016-08-03T08:10:00.366Z,93.05
2016-08-03T08:11:00.379Z,92.95
2016-08-03T08:12:00.402Z,93.05
2016-08-03T08:13:00.419Z,92.66
2016-08-03T08:14:00.446Z,93.05
2016-08-03T08:15:00.464Z,93.05
2016-08-03T08:16:00.483Z,92.85
2016-08-03T08:17:00.507Z,94.01
2016-08-03T08:18:00.532Z,94.01
2016-08-03T08:19:00.543Z,94.2
2016-08-03T08:20:00.574Z,94.4
2016-08-03T08:21:00.585Z,94.2
2016-08-03T08:22:00.624Z,94.3
2016-08-03T08:23:00.629Z,93.62
2016-08-03T08:24:00.658Z,93.72
2016-08-03T08:25:00.669Z,93.82
2016-08-03T08:26:00.696Z,93.62
2016-08-03T08:27:00.716Z,93.05
2016-08-03T08:28:00.737Z,93.05
2016-08-03T08:29:00.757Z,92.95
2016-08-03T08:30:00.784Z,92.57
2016-08-03T08:31:00.801Z,91.99
2016-08-03T08:32:00.826Z,91.31
2016-08-03T08:33:00.839Z,92.52
2016-08-03T08:34:00.859Z,91.36
2016-08-03T08:35:00.877Z,91.17
2016-08-03T08:36:00.907Z,92.13
2016-08-03T08:37:00.926Z,91.84
2016-08-03T08:38:00.940Z,92.03
2016-08-03T08:39:00.960Z,91.55
2016-08-03T08:40:00.989Z,91.36
2016-08-03T08:41:01.001Z,91.02
2016-08-03T08:42:01.030Z,90.25
2016-08-03T08:43:01.042Z,89.96
2016-08-03T08:44:01.072Z,90.44
2016-08-03T08:45:01.093Z,90.34
2016-08-03T08:46:01.114Z,90.44
2016-08-03T08:47:01.125Z,89
2016-08-03T08:48:01.157Z,88.75
2016-08-03T08:49:01.170Z,88.37
2016-08-03T08:50:01.200Z,88.95
2016-08-03T08:51:01.219Z,88.46
2016-08-03T08:52:01.291Z,87.3
2016-08-03T08:53:01.262Z,86.35
2016-08-03T08:54:01.292Z,86.35
2016-08-03T08:55:01.299Z,87.02
2016-08-03T08:56:01.324Z,86.63
2016-08-03T08:57:01.357Z,86.25
2016-08-03T08:58:01.372Z,86.63
2016-08-03T08:59:01.396Z,85.91
2016-08-03T09:00:01.410Z,85.71
2016-08-03T09:01:01.451Z,86.29
2016-08-03T09:02:01.455Z,85.42
2016-08-03T09:03:01.468Z,85.75
2016-08-03T09:04:01.493Z,84.5
2016-08-03T09:05:01.515Z,84.11
2016-08-03T09:06:01.545Z,84.5
2016-08-03T09:07:01.558Z,84.59
2016-08-03T09:08:01.587Z,84.11
2016-08-03T09:09:01.601Z,84.21
2016-08-03T09:10:01.629Z,84.41
2016-08-03T09:11:01.643Z,84.59
2016-08-03T09:12:01.675Z,84.41
2016-08-03T09:13:01.686Z,83.83
2016-08-03T09:14:01.710Z,83.15
2016-08-03T09:15:01.734Z,82.13
2016-08-03T09:17:01.778Z,81.07
2016-08-03T09:18:01.801Z,80.1
2016-08-03T09:19:01.818Z,79.91
2016-08-03T09:20:01.836Z,80.82
2016-08-03T09:21:01.865Z,79.85
2016-08-03T09:22:01.885Z,80.43
2016-08-03T09:23:01.909Z,80.05
2016-08-03T09:24:01.931Z,79.75
2016-08-03T09:25:01.953Z,77.73
2016-08-03T09:26:01.975Z,78.11
2016-08-03T09:27:01.997Z,78.5
2016-08-03T09:28:02.020Z,79.47
2016-08-03T09:29:02.046Z,78.31
2016-08-03T09:30:02.064Z,79.75
2016-08-03T09:32:02.113Z,79.72
2016-08-03T09:33:02.133Z,80
2016-08-03T09:34:02.150Z,80.49
2016-08-03T09:35:02.172Z,81.26
2016-08-03T09:36:02.201Z,80.87
2016-08-03T09:37:02.220Z,81.26
2016-08-03T09:38:02.242Z,81.84
2016-08-03T09:39:02.270Z,82.23
2016-08-03T09:40:02.280Z,82.13
2016-08-03T09:41:02.309Z,81.93
2016-08-03T09:42:02.331Z,81.74
2016-08-03T09:43:02.356Z,81.74
2016-08-03T09:44:02.374Z,81.35
2016-08-03T09:45:02.393Z,81.26
2016-08-03T09:47:02.435Z,81.16
2016-08-03T09:48:02.460Z,81.35
2016-08-03T09:49:02.478Z,80.58
2016-08-03T09:50:02.505Z,80.97
2016-08-03T09:51:02.523Z,81.7
2016-08-03T09:52:02.546Z,81.12
2016-08-03T09:53:02.575Z,81.6
2016-08-03T09:54:02.600Z,80.99
2016-08-03T09:55:02.617Z,81.85
2016-08-03T09:56:02.640Z,82.53
2016-08-03T09:57:02.655Z,82.43
2016-08-03T09:58:02.720Z,83.4
2016-08-03T09:59:02.704Z,83.11
2016-08-03T10:00:02.720Z,82.92
2016-08-03T10:02:02.775Z,85.13
2016-08-03T10:03:02.779Z,85.33
2016-08-03T10:04:02.817Z,86.1
2016-08-03T10:05:02.836Z,86.73
2016-08-03T10:06:02.847Z,87.6
2016-08-03T10:07:02.871Z,86.54
2016-08-03T10:08:02.901Z,86.82
2016-08-03T10:09:02.947Z,86.54
2016-08-03T10:10:02.982Z,86.35
2016-08-03T10:11:02.956Z,85.38
2016-08-03T10:12:03.046Z,85.23
2016-08-03T10:13:03.001Z,86
2016-08-03T10:14:03.021Z,85.71
2016-08-03T10:15:03.039Z,86.73
2016-08-03T10:16:03.070Z,86.77
2016-08-03T10:17:03.088Z,86.1
2016-08-03T10:18:03.112Z,86.19
2016-08-03T10:19:03.127Z,85.71
2016-08-03T10:20:03.165Z,85.71
2016-08-03T10:21:03.179Z,84.27
2016-08-03T10:22:03.192Z,84.07
2016-08-03T10:23:03.215Z,82.48
2016-08-03T10:24:03.242Z,82.38
2016-08-03T10:25:03.256Z,82.76
2016-08-03T10:26:03.280Z,83.73
2016-08-03T10:27:03.302Z,83.92
2016-08-03T10:28:03.325Z,82.76
2016-08-03T10:29:03.345Z,81.7
2016-08-03T10:30:03.368Z,81.99
2016-08-03T10:31:03.390Z,81.7
2016-08-03T10:32:03.417Z,82.09
2016-08-03T10:33:03.431Z,82.81
2016-08-03T10:34:03.458Z,82.86
2016-08-03T10:35:03.478Z,83.44
2016-08-03T10:36:03.502Z,81.8
2016-08-03T10:37:03.520Z,82.38
2016-08-03T10:38:03.544Z,82.28
2016-08-03T10:39:03.563Z,82.38
2016-08-03T10:40:03.583Z,83.25
2016-08-03T10:41:03.608Z,83.05
2016-08-03T10:42:03.626Z,82.28
2016-08-03T10:43:03.649Z,81.12
2016-08-03T10:44:03.671Z,81.32
2016-08-03T10:45:03.702Z,81.8
2016-08-03T10:46:03.724Z,82.28
2016-08-03T10:47:03.737Z,82.57
2016-08-03T10:48:03.758Z,82.48
2016-08-03T10:49:03.787Z,82.48
2016-08-03T10:50:03.805Z,82.28
2016-08-03T10:51:03.830Z,82.57
2016-08-03T10:52:03.858Z,83.25
2016-08-03T10:53:03.871Z,83.15
2016-08-03T10:54:03.897Z,83.05
2016-08-03T10:55:03.918Z,83.25
2016-08-03T10:56:03.931Z,82.48
2016-08-03T10:57:03.958Z,83.25
2016-08-03T10:58:03.972Z,83.15
2016-08-03T10:59:03.991Z,83.44
2016-08-03T11:00:04.044Z,83.44
2016-08-03T11:01:04.038Z,83.4
2016-08-03T11:02:04.063Z,83.5
2016-08-03T11:03:04.080Z,83.4
2016-08-03T11:04:04.111Z,83.05
2016-08-03T11:05:04.125Z,83.05
2016-08-03T11:06:04.145Z,82.72
2016-08-03T11:07:04.168Z,82.67
2016-08-03T11:08:04.200Z,82.43
2016-08-03T11:09:04.217Z,82.34
2016-08-03T11:10:04.245Z,82.38
2016-08-03T11:11:04.260Z,82.18
2016-08-03T11:12:04.277Z,82.48
2016-08-03T11:13:04.307Z,82.38
2016-08-03T11:14:04.322Z,82.28
2016-08-03T11:15:04.366Z,82.67
2016-08-03T11:16:04.369Z,82.38
2016-08-03T11:17:04.387Z,82.38
2016-08-03T11:18:04.411Z,81.8
2016-08-03T11:19:04.430Z,82.09
2016-08-03T11:20:04.457Z,82.28
2016-08-03T11:21:04.473Z,82.86
2016-08-03T11:22:04.500Z,83.92
2016-08-03T11:23:04.518Z,83.53
2016-08-03T11:24:04.546Z,83.25
2016-08-03T11:25:04.563Z,82.57
2016-08-03T11:26:04.594Z,82.48
2016-08-03T11:27:04.603Z,82.67
2016-08-03T11:28:04.628Z,82.86
2016-08-03T11:29:04.645Z,82.76
2016-08-03T11:30:04.665Z,83.4
2016-08-03T11:31:04.691Z,82.76
2016-08-03T11:32:04.712Z,83.01
2016-08-03T11:33:05.466Z,83.2
2016-08-03T11:34:04.759Z,83.15
2016-08-03T11:35:04.773Z,84.27
2016-08-03T11:36:04.794Z,83.88
2016-08-03T11:37:04.817Z,83.78
2016-08-03T11:38:04.846Z,83.73
2016-08-03T11:39:04.862Z,83.92
2016-08-03T11:40:04.889Z,83.53
2016-08-03T11:41:04.909Z,83.25
2016-08-03T11:42:04.926Z,82.48
2016-08-03T11:43:04.952Z,82.18
2016-08-03T11:44:04.970Z,82.38
2016-08-03T11:45:04.995Z,82.09
2016-08-03T11:46:05.005Z,83.05
2016-08-03T11:47:05.030Z,82.86
2016-08-03T11:48:05.068Z,83.44
2016-08-03T11:49:05.083Z,83.34
2016-08-03T11:50:05.103Z,83.25
2016-08-03T11:51:05.117Z,83.34
2016-08-03T11:52:05.148Z,83.63
2016-08-03T11:53:05.161Z,83.44
2016-08-03T11:54:05.203Z,83.53
2016-08-03T11:55:05.205Z,84.31
2016-08-03T11:56:05.241Z,84.55
2016-08-03T11:57:05.253Z,84.75
2016-08-03T11:58:05.279Z,84.84
2016-08-03T11:59:05.289Z,84.84
2016-08-03T12:00:05.317Z,84.55
2016-08-03T12:01:05.340Z,84.46
2016-08-03T12:02:05.359Z,84.46
2016-08-03T12:03:05.380Z,84.46
2016-08-03T12:04:05.403Z,83.78
2016-08-03T12:05:05.424Z,84.84
2016-08-03T12:06:05.447Z,85.52
2016-08-03T12:07:05.466Z,85.52
2016-08-03T12:08:05.489Z,85.91
2016-08-03T12:09:05.505Z,86.05
2016-08-03T12:10:05.529Z,86.92
2016-08-03T12:11:05.550Z,87.74
2016-08-03T12:12:06.292Z,87.74
2016-08-03T12:13:05.600Z,86.63
2016-08-03T12:14:05.617Z,87.7
2016-08-03T12:15:05.640Z,87.5
2016-08-03T12:16:05.657Z,88.08
2016-08-03T12:17:05.684Z,88.08
2016-08-03T12:18:05.701Z,88.46
2016-08-03T12:19:05.725Z,88.46
2016-08-03T12:20:05.744Z,90.58
2016-08-03T12:21:05.762Z,91.36
2016-08-03T12:22:05.793Z,91.74
2016-08-03T12:23:05.807Z,91.93
2016-08-03T12:24:05.832Z,92.22
2016-08-03T12:25:05.850Z,92.32
2016-08-03T12:26:05.882Z,93.19
2016-08-03T12:27:05.901Z,93.24
2016-08-03T12:28:05.915Z,94.87
2016-08-03T12:29:05.941Z,95.36
2016-08-03T12:30:05.956Z,95.16
2016-08-03T12:31:05.982Z,93.91
2016-08-03T12:32:06.004Z,94.59
2016-08-03T12:33:06.028Z,94.59
2016-08-03T12:34:06.039Z,94.97
2016-08-03T12:35:06.064Z,95.07
2016-08-03T12:36:06.090Z,95.16
2016-08-03T12:37:06.109Z,94.97
2016-08-03T12:38:06.133Z,94.39
2016-08-03T12:39:06.147Z,93.81
2016-08-03T12:40:06.171Z,94.1
2016-08-03T12:41:06.192Z,93.91
2016-08-03T12:42:06.218Z,93.96
2016-08-03T12:43:06.231Z,94.82
2016-08-03T12:44:06.263Z,94.82
2016-08-03T12:45:06.278Z,94.24
2016-08-03T12:46:06.299Z,94.63
2016-08-03T12:47:06.319Z,94.34
2016-08-03T12:48:06.339Z,93.66
2016-08-03T12:49:06.366Z,93.86
2016-08-03T12:50:06.384Z,94.15
2016-08-03T12:51:06.409Z,93.76
2016-08-03T12:52:06.425Z,93.76
2016-08-03T12:53:06.449Z,94.06
2016-08-03T12:54:06.472Z,94.06
2016-08-03T12:55:06.504Z,93.48
2016-08-03T12:56:06.517Z,93.66
2016-08-03T12:57:06.530Z,94.06
2016-08-03T12:58:06.555Z,93.86
2016-08-03T12:59:06.577Z,94.54
2016-08-03T13:00:06.600Z,94.92
2016-08-03T13:01:06.621Z,94.24
2016-08-03T13:02:06.644Z,95.59
2016-08-03T13:03:06.663Z,95.02
2016-08-03T13:04:06.684Z,94.82